createdAt,value
2024-02-07T00:00:01.240Z,51.179283
2024-02-07T00:01:01.257Z,51.179291
2024-02-07T00:02:01.336Z,51.179321
2024-02-07T00:03:01.214Z,51.179268
2024-02-07T00:04:01.341Z,51.179272
2024-02-07T00:05:01.297Z,51.179260
2024-02-07T00:06:01.270Z,51.179226
2024-02-07T00:07:01.247Z,51.179237
2024-02-07T00:08:01.263Z,51.179264
2024-02-07T00:09:01.146Z,51.179264
2024-02-07T00:10:01.136Z,51.179207
2024-02-07T00:11:01.216Z,51.179237
2024-02-07T00:12:01.094Z,51.179249
2024-02-07T00:13:01.116Z,51.179256
2024-02-07T00:14:01.117Z,51.179260
2024-02-07T00:15:01.086Z,51.179276
2024-02-07T00:16:01.066Z,51.179264
2024-02-07T00:17:01.057Z,51.179241
2024-02-07T00:18:01.096Z,51.179264
2024-02-07T00:19:01.092Z,51.179260
2024-02-07T00:20:01.066Z,51.179264
2024-02-07T00:21:00.989Z,51.179226
2024-02-07T00:22:01.081Z,51.179260
2024-02-07T00:23:01.028Z,51.179268
2024-02-07T00:24:00.969Z,51.179302
2024-02-07T00:25:00.999Z,51.179302
2024-02-07T00:26:00.998Z,51.179276
2024-02-07T00:27:00.923Z,51.179272
2024-02-07T00:28:00.931Z,51.179272
2024-02-07T00:29:00.920Z,51.179295
2024-02-07T00:30:00.900Z,51.179276
2024-02-07T00:31:00.938Z,51.179272
2024-02-07T00:32:00.885Z,51.179268
2024-02-07T00:33:00.974Z,51.179268
2024-02-07T00:34:00.858Z,51.179260
2024-02-07T00:35:00.959Z,51.179253
2024-02-07T00:36:00.877Z,51.179279
2024-02-07T00:37:00.877Z,51.179287
2024-02-07T00:38:00.848Z,51.179249
2024-02-07T00:39:00.807Z,51.179283
2024-02-07T00:40:00.790Z,51.179256
2024-02-07T00:41:00.851Z,51.179253
2024-02-07T00:42:00.771Z,51.179218
2024-02-07T00:43:00.789Z,51.179188
2024-02-07T00:44:00.814Z,51.179264
2024-02-07T00:45:00.737Z,51.179237
2024-02-07T00:46:00.762Z,51.179218
2024-02-07T00:47:00.749Z,51.179230
2024-02-07T00:48:00.785Z,51.179234
2024-02-07T00:49:00.753Z,51.179214
2024-02-07T00:50:00.719Z,51.179237
2024-02-07T00:51:00.684Z,51.179234
2024-02-07T00:52:00.669Z,51.179245
2024-02-07T00:53:00.680Z,51.179283
2024-02-07T00:54:00.632Z,51.179287
2024-02-07T00:55:00.672Z,51.179253
2024-02-07T00:56:00.671Z,51.179230
2024-02-07T00:57:00.596Z,51.179253
2024-02-07T00:58:00.631Z,51.179249
2024-02-07T00:59:00.622Z,51.179226
2024-02-07T01:00:00.593Z,51.179203
2024-02-07T01:01:00.623Z,51.179272
2024-02-07T01:02:00.582Z,51.179253
2024-02-07T01:03:00.609Z,51.179256
2024-02-07T01:04:00.583Z,51.179268
2024-02-07T01:05:00.820Z,51.179234
2024-02-07T01:06:00.722Z,51.179253
2024-02-07T01:07:00.568Z,51.179234
2024-02-07T01:08:00.616Z,51.179230
2024-02-07T01:09:00.496Z,51.179249
2024-02-07T01:10:00.503Z,51.179298
2024-02-07T01:11:00.564Z,51.179253
2024-02-07T01:12:00.479Z,51.179256
2024-02-07T01:13:00.468Z,51.179279
2024-02-07T01:14:00.449Z,51.179253
2024-02-07T01:15:00.449Z,51.179241
2024-02-07T01:16:00.431Z,51.179241
2024-02-07T01:17:00.444Z,51.179234
2024-02-07T01:18:00.478Z,51.179211
2024-02-07T01:19:00.417Z,51.179214
2024-02-07T01:20:00.475Z,51.179241
2024-02-07T01:21:00.362Z,51.179279
2024-02-07T01:22:00.357Z,51.179245
2024-02-07T01:23:01.382Z,51.179226
2024-02-07T01:24:00.331Z,51.179199
2024-02-07T01:25:00.339Z,51.179234
2024-02-07T01:26:00.356Z,51.179199
2024-02-07T01:27:00.332Z,51.179253
2024-02-07T01:28:00.310Z,51.179268
2024-02-07T01:29:00.373Z,51.179276
2024-02-07T01:30:00.369Z,51.179279
2024-02-07T01:31:00.256Z,51.179268
2024-02-07T01:32:00.305Z,51.179237
2024-02-07T01:33:00.360Z,51.179214
2024-02-07T01:34:00.376Z,51.179245
2024-02-07T01:35:00.280Z,51.179260
2024-02-07T01:36:00.224Z,51.179264
2024-02-07T01:37:00.273Z,51.179241
2024-02-07T01:38:00.218Z,51.179211
2024-02-07T01:39:00.205Z,51.179169
2024-02-07T01:40:00.195Z,51.179165
2024-02-07T01:41:00.312Z,51.179207
2024-02-07T01:42:00.436Z,51.179222
2024-02-07T01:43:00.169Z,51.179253
2024-02-07T01:44:00.157Z,51.179230
2024-02-07T01:45:00.165Z,51.179237
2024-02-07T01:46:00.126Z,51.179218
2024-02-07T01:47:00.133Z,51.179207
2024-02-07T01:48:00.168Z,51.179222
2024-02-07T01:49:01.108Z,51.179188
2024-02-07T01:50:00.214Z,51.179203
2024-02-07T01:51:00.062Z,51.179211
2024-02-07T01:52:00.050Z,51.179234
2024-02-07T01:53:00.070Z,51.179222
2024-02-07T01:54:00.042Z,51.179214
2024-02-07T01:55:00.014Z,51.179249
2024-02-07T01:56:00.093Z,51.179211
2024-02-07T01:57:00.056Z,51.179249
2024-02-07T01:57:59.965Z,51.179230
2024-02-07T01:59:00.041Z,51.179173
2024-02-07T01:59:59.979Z,51.179214
2024-02-07T02:01:00.041Z,51.179203
2024-02-07T02:02:00.008Z,51.179218
2024-02-07T02:02:59.956Z,51.179253
2024-02-07T02:04:00.021Z,51.179260
2024-02-07T02:04:59.933Z,51.179264
2024-02-07T02:05:59.941Z,51.179161
2024-02-07T02:06:59.954Z,51.179218
2024-02-07T02:07:59.971Z,51.179237
2024-02-07T02:08:59.860Z,51.179256
2024-02-07T02:09:59.910Z,51.179256
2024-02-07T02:10:59.935Z,51.179249
2024-02-07T02:11:59.862Z,51.179207
2024-02-07T02:12:59.810Z,51.179256
2024-02-07T02:13:59.861Z,51.179256
2024-02-07T02:14:59.816Z,51.179276
2024-02-07T02:15:59.803Z,51.179264
2024-02-07T02:16:59.857Z,51.179214
2024-02-07T02:17:59.831Z,51.179188
2024-02-07T02:18:59.766Z,51.179058
2024-02-07T02:19:59.810Z,51.179100
2024-02-07T02:20:59.799Z,51.179192
2024-02-07T02:21:59.735Z,51.179241
2024-02-07T02:22:59.814Z,51.179226
2024-02-07T02:23:59.730Z,51.179188
2024-02-07T02:24:59.715Z,51.179195
2024-02-07T02:25:59.713Z,51.179157
2024-02-07T02:26:59.709Z,51.179226
2024-02-07T02:27:59.658Z,51.179211
2024-02-07T02:28:59.696Z,51.179173
2024-02-07T02:29:59.705Z,51.179279
2024-02-07T02:30:59.614Z,51.179314
2024-02-07T02:31:59.661Z,51.179317
2024-02-07T02:32:59.696Z,51.179276
2024-02-07T02:33:59.662Z,51.179268
2024-02-07T02:34:59.801Z,51.179291
2024-02-07T02:35:59.587Z,51.179237
2024-02-07T02:36:59.593Z,51.179302
2024-02-07T02:37:59.597Z,51.179272
2024-02-07T02:39:00.586Z,51.179287
2024-02-07T02:39:59.571Z,51.179249
2024-02-07T02:40:59.517Z,51.179260
2024-02-07T02:41:59.600Z,51.179203
2024-02-07T02:42:59.547Z,51.179169
2024-02-07T02:43:59.563Z,51.179157
2024-02-07T02:44:59.480Z,51.179207
2024-02-07T02:45:59.496Z,51.179230
2024-02-07T02:46:59.484Z,51.179276
2024-02-07T02:47:59.523Z,51.179230
2024-02-07T02:48:59.463Z,51.179283
2024-02-07T02:49:59.437Z,51.179276
2024-02-07T02:50:59.426Z,51.179298
2024-02-07T02:51:59.395Z,51.179283
2024-02-07T02:52:59.455Z,51.179333
2024-02-07T02:53:59.415Z,51.179314
2024-02-07T02:54:59.411Z,51.179306
2024-02-07T02:55:59.447Z,51.179283
2024-02-07T02:56:59.373Z,51.179283
2024-02-07T02:57:59.351Z,51.179363
2024-02-07T02:58:59.402Z,51.179352
2024-02-07T02:59:59.341Z,51.179375
2024-02-07T03:00:59.303Z,51.179298
2024-02-07T03:01:59.526Z,51.179287
2024-02-07T03:02:59.301Z,51.179272
2024-02-07T03:03:59.288Z,51.179203
2024-02-07T03:04:59.433Z,51.179237
2024-02-07T03:05:59.412Z,51.179195
2024-02-07T03:06:59.302Z,51.179222
2024-02-07T03:07:59.278Z,51.179283
2024-02-07T03:08:59.259Z,51.179279
2024-02-07T03:09:59.243Z,51.179253
2024-02-07T03:10:59.219Z,51.179249
2024-02-07T03:11:59.207Z,51.179256
2024-02-07T03:12:59.249Z,51.179264
2024-02-07T03:13:59.281Z,51.179264
2024-02-07T03:14:59.136Z,51.179264
2024-02-07T03:16:00.169Z,51.179287
2024-02-07T03:16:59.216Z,51.179276
2024-02-07T03:17:59.165Z,51.179237
2024-02-07T03:19:00.360Z,51.179264
2024-02-07T03:19:59.220Z,51.179276
2024-02-07T03:20:59.102Z,51.179249
2024-02-07T03:21:59.092Z,51.179245
2024-02-07T03:22:59.233Z,51.179287
2024-02-07T03:23:59.141Z,51.179264
2024-02-07T03:24:59.062Z,51.179256
2024-02-07T03:25:59.105Z,51.179264
2024-02-07T03:26:59.034Z,51.179245
2024-02-07T03:27:59.085Z,51.179230
2024-02-07T03:28:59.087Z,51.179214
2024-02-07T03:29:59.047Z,51.179241
2024-02-07T03:30:58.982Z,51.179199
2024-02-07T03:31:59.034Z,51.179214
2024-02-07T03:32:59.124Z,51.179230
2024-02-07T03:33:59.038Z,51.179234
2024-02-07T03:34:59.093Z,51.179180
2024-02-07T03:35:58.987Z,51.179203
2024-02-07T03:36:58.938Z,51.179226
2024-02-07T03:37:58.981Z,51.179203
2024-02-07T03:38:58.966Z,51.179199
2024-02-07T03:39:58.906Z,51.179249
2024-02-07T03:40:58.987Z,51.179195
2024-02-07T03:41:58.893Z,51.179165
2024-02-07T03:42:58.882Z,51.179153
2024-02-07T03:43:58.936Z,51.179195
2024-02-07T03:45:30.763Z,51.179173
2024-02-07T03:45:58.868Z,51.179207
2024-02-07T03:46:58.936Z,51.179211
2024-02-07T03:47:59.006Z,51.179245
2024-02-07T03:48:58.876Z,51.179234
2024-02-07T03:49:58.903Z,51.179272
2024-02-07T03:50:58.798Z,51.179241
2024-02-07T03:51:58.774Z,51.179222
2024-02-07T03:52:58.828Z,51.179249
2024-02-07T03:53:58.755Z,51.179241
2024-02-07T03:54:58.794Z,51.179276
2024-02-07T03:55:58.913Z,51.179249
2024-02-07T03:56:58.712Z,51.179230
2024-02-07T03:57:58.722Z,51.179230
2024-02-07T03:58:58.822Z,51.179256
2024-02-07T03:59:58.676Z,51.179249
2024-02-07T04:00:58.720Z,51.179264
2024-02-07T04:01:58.798Z,51.179337
2024-02-07T04:02:58.663Z,51.179340
2024-02-07T04:03:58.812Z,51.179306
2024-02-07T04:04:58.747Z,51.179295
2024-02-07T04:05:58.619Z,51.179249
2024-02-07T04:06:58.728Z,51.179249
2024-02-07T04:07:59.056Z,51.179218
2024-02-07T04:08:59.052Z,51.179268
2024-02-07T04:09:58.598Z,51.179291
2024-02-07T04:10:58.645Z,51.179272
2024-02-07T04:11:58.564Z,51.179276
2024-02-07T04:12:58.553Z,51.179264
2024-02-07T04:13:58.626Z,51.179234
2024-02-07T04:14:58.531Z,51.179218
2024-02-07T04:15:58.561Z,51.179218
2024-02-07T04:16:58.594Z,51.179237
2024-02-07T04:17:58.522Z,51.179245
2024-02-07T04:18:58.596Z,51.179245
2024-02-07T04:19:58.533Z,51.179256
2024-02-07T04:20:58.486Z,51.179245
2024-02-07T04:21:58.469Z,51.179279
2024-02-07T04:22:58.511Z,51.179264
2024-02-07T04:23:58.446Z,51.179249
2024-02-07T04:24:58.442Z,51.179253
2024-02-07T04:25:58.438Z,51.179245
2024-02-07T04:26:58.485Z,51.179222
2024-02-07T04:27:58.399Z,51.179207
2024-02-07T04:28:58.424Z,51.179249
2024-02-07T04:29:58.374Z,51.179245
2024-02-07T04:30:58.414Z,51.179234
2024-02-07T04:31:58.372Z,51.179237
2024-02-07T04:32:58.359Z,51.179237
2024-02-07T04:33:58.370Z,51.179249
2024-02-07T04:34:58.363Z,51.179245
2024-02-07T04:35:58.317Z,51.179283
2024-02-07T04:36:58.309Z,51.179287
2024-02-07T04:37:58.332Z,51.179268
2024-02-07T04:38:59.338Z,51.179241
2024-02-07T04:39:58.327Z,51.179253
2024-02-07T04:40:58.305Z,51.179260
2024-02-07T04:41:58.282Z,51.179306
2024-02-07T04:42:58.233Z,51.179291
2024-02-07T04:43:58.295Z,51.179298
2024-02-07T04:44:58.222Z,51.179306
2024-02-07T04:45:58.219Z,51.179329
2024-02-07T04:46:58.274Z,51.179348
2024-02-07T04:47:58.246Z,51.179298
2024-02-07T04:48:58.327Z,51.179317
2024-02-07T04:49:58.280Z,51.179302
2024-02-07T04:50:58.191Z,51.179310
2024-02-07T04:51:58.147Z,51.179298
2024-02-07T04:52:59.238Z,51.179291
2024-02-07T04:53:58.136Z,51.179283
2024-02-07T04:54:58.142Z,51.179287
2024-02-07T04:55:58.185Z,51.179287
2024-02-07T04:56:58.111Z,51.179333
2024-02-07T04:57:58.099Z,51.179295
2024-02-07T04:58:58.174Z,51.179291
2024-02-07T04:59:58.098Z,51.179264
2024-02-07T05:00:58.101Z,51.179291
2024-02-07T05:01:58.148Z,51.179272
2024-02-07T05:02:58.064Z,51.179249
2024-02-07T05:03:58.101Z,51.179272
2024-02-07T05:04:58.049Z,51.179283
2024-02-07T05:05:58.058Z,51.179256
2024-02-07T05:06:58.029Z,51.179283
2024-02-07T05:07:58.013Z,51.179291
2024-02-07T05:08:57.982Z,51.179310
2024-02-07T05:09:58.017Z,51.179298
2024-02-07T05:10:58.017Z,51.179287
2024-02-07T05:11:57.966Z,51.179283
2024-02-07T05:12:57.945Z,51.179287
2024-02-07T05:13:57.944Z,51.179283
2024-02-07T05:14:57.930Z,51.179256
2024-02-07T05:15:57.936Z,51.179272
2024-02-07T05:16:57.992Z,51.179260
2024-02-07T05:17:57.946Z,51.179245
2024-02-07T05:18:57.974Z,51.179306
2024-02-07T05:19:57.929Z,51.179329
2024-02-07T05:20:57.874Z,51.179298
2024-02-07T05:21:57.841Z,51.179264
2024-02-07T05:22:57.869Z,51.179253
2024-02-07T05:23:58.809Z,51.179268
2024-02-07T05:24:57.876Z,51.179276
2024-02-07T05:25:57.872Z,51.179253
2024-02-07T05:26:57.804Z,51.179256
2024-02-07T05:27:57.781Z,51.179268
2024-02-07T05:28:57.811Z,51.179241
2024-02-07T05:29:57.745Z,51.179256
2024-02-07T05:30:57.762Z,51.179291
2024-02-07T05:31:57.788Z,51.179321
2024-02-07T05:32:57.773Z,51.179291
2024-02-07T05:33:57.786Z,51.179283
2024-02-07T05:34:57.773Z,51.179279
2024-02-07T05:35:57.755Z,51.179295
2024-02-07T05:36:57.707Z,51.179283
2024-02-07T05:37:57.773Z,51.179279
2024-02-07T05:38:57.643Z,51.179314
2024-02-07T05:39:57.705Z,51.179310
2024-02-07T05:40:57.700Z,51.179302
2024-02-07T05:41:57.652Z,51.179295
2024-02-07T05:42:57.697Z,51.179314
2024-02-07T05:43:57.740Z,51.179333
2024-02-07T05:44:57.602Z,51.179314
2024-02-07T05:45:57.657Z,51.179298
2024-02-07T05:46:57.787Z,51.179329
2024-02-07T05:47:57.624Z,51.179317
2024-02-07T05:48:57.651Z,51.179291
2024-02-07T05:49:57.596Z,51.179272
2024-02-07T05:50:57.591Z,51.179272
2024-02-07T05:52:01.039Z,51.179283
2024-02-07T05:52:58.543Z,51.179306
2024-02-07T05:53:57.505Z,51.179314
2024-02-07T05:54:57.572Z,51.179283
2024-02-07T05:55:57.618Z,51.179264
2024-02-07T05:56:58.542Z,51.179276
2024-02-07T05:57:57.526Z,51.179264
2024-02-07T05:58:57.566Z,51.179272
2024-02-07T05:59:57.460Z,51.179321
2024-02-07T06:00:57.504Z,51.179344
2024-02-07T06:01:57.629Z,51.179317
2024-02-07T06:02:57.464Z,51.179249
2024-02-07T06:03:57.424Z,51.179249
2024-02-07T06:04:57.499Z,51.179260
2024-02-07T06:05:57.388Z,51.179287
2024-02-07T06:06:57.384Z,51.179264
2024-02-07T06:07:57.464Z,51.179295
2024-02-07T06:08:57.336Z,51.179272
2024-02-07T06:09:57.356Z,51.179333
2024-02-07T06:10:57.439Z,51.179359
2024-02-07T06:11:57.325Z,51.179352
2024-02-07T06:12:57.287Z,51.179295
2024-02-07T06:13:57.314Z,51.179302
2024-02-07T06:14:57.302Z,51.179291
2024-02-07T06:15:57.261Z,51.179329
2024-02-07T06:16:57.340Z,51.179344
2024-02-07T06:17:57.363Z,51.179314
2024-02-07T06:18:57.330Z,51.179287
2024-02-07T06:19:57.406Z,51.179260
2024-02-07T06:20:57.382Z,51.179230
2024-02-07T06:21:57.220Z,51.179283
2024-02-07T06:22:57.249Z,51.179295
2024-02-07T06:23:57.166Z,51.179279
2024-02-07T06:24:57.160Z,51.179256
2024-02-07T06:25:57.246Z,51.179291
2024-02-07T06:26:57.156Z,51.179356
2024-02-07T06:27:57.194Z,51.179302
2024-02-07T06:28:57.214Z,51.179176
2024-02-07T06:29:57.166Z,51.179173
2024-02-07T06:30:57.137Z,51.179245
2024-02-07T06:31:57.153Z,51.179230
2024-02-07T06:32:57.169Z,51.179287
2024-02-07T06:33:57.170Z,51.179291
2024-02-07T06:34:57.130Z,51.179230
2024-02-07T06:35:57.055Z,51.179245
2024-02-07T06:36:57.019Z,51.179234
2024-02-07T06:37:57.095Z,51.179211
2024-02-07T06:38:57.027Z,51.179226
2024-02-07T06:39:57.045Z,51.179234
2024-02-07T06:40:57.061Z,51.179226
2024-02-07T06:41:56.982Z,51.179214
2024-02-07T06:42:56.985Z,51.179237
2024-02-07T06:43:57.052Z,51.179283
2024-02-07T06:44:56.953Z,51.179283
2024-02-07T06:45:56.933Z,51.179295
2024-02-07T06:46:57.039Z,51.179253
2024-02-07T06:47:56.948Z,51.179234
2024-02-07T06:48:57.048Z,51.179226
2024-02-07T06:49:56.914Z,51.179230
2024-02-07T06:50:56.946Z,51.179283
2024-02-07T06:51:56.903Z,51.179272
2024-02-07T06:52:56.944Z,51.179237
2024-02-07T06:53:56.869Z,51.179230
2024-02-07T06:54:56.884Z,51.179214
2024-02-07T06:56:00.056Z,51.179260
2024-02-07T06:56:57.874Z,51.179256
2024-02-07T06:57:56.814Z,51.179237
2024-02-07T06:58:56.821Z,51.179230
2024-02-07T06:59:56.845Z,51.179283
2024-02-07T07:00:56.788Z,51.179295
2024-02-07T07:01:56.849Z,51.179283
2024-02-07T07:02:56.772Z,51.179234
2024-02-07T07:03:56.848Z,51.179234
2024-02-07T07:04:56.806Z,51.179222
2024-02-07T07:05:56.816Z,51.179237
2024-02-07T07:06:56.766Z,51.179214
2024-02-07T07:07:56.752Z,51.179256
2024-02-07T07:08:56.689Z,51.179226
2024-02-07T07:09:56.697Z,51.179203
2024-02-07T07:10:56.739Z,51.179234
2024-02-07T07:11:56.691Z,51.179203
2024-02-07T07:12:56.671Z,51.179199
2024-02-07T07:14:00.150Z,51.179218
2024-02-07T07:14:58.633Z,51.179249
2024-02-07T07:15:56.641Z,51.179295
2024-02-07T07:16:56.759Z,51.179272
2024-02-07T07:17:56.628Z,51.179253
2024-02-07T07:18:56.596Z,51.179211
2024-02-07T07:19:56.655Z,51.179222
2024-02-07T07:20:56.545Z,51.179268
2024-02-07T07:21:56.543Z,51.179222
2024-02-07T07:23:04.229Z,51.179218
2024-02-07T07:23:58.549Z,51.179226
2024-02-07T07:24:56.560Z,51.179222
2024-02-07T07:25:56.563Z,51.179237
2024-02-07T07:26:57.829Z,51.179207
2024-02-07T07:27:56.512Z,51.179184
2024-02-07T07:28:56.564Z,51.179195
2024-02-07T07:29:56.513Z,51.179207
2024-02-07T07:30:56.459Z,51.179207
2024-02-07T07:31:56.536Z,51.179249
2024-02-07T07:32:56.469Z,51.179245
2024-02-07T07:33:56.620Z,51.179226
2024-02-07T07:34:56.519Z,51.179207
2024-02-07T07:35:56.443Z,51.179195
2024-02-07T07:36:56.417Z,51.179165
2024-02-07T07:37:57.424Z,51.179218
2024-02-07T07:38:56.362Z,51.179195
2024-02-07T07:39:56.396Z,51.179207
2024-02-07T07:40:56.402Z,51.179192
2024-02-07T07:41:56.341Z,51.179218
2024-02-07T07:42:56.326Z,51.179199
2024-02-07T07:43:56.400Z,51.179180
2024-02-07T07:44:56.357Z,51.179218
2024-02-07T07:45:56.284Z,51.179253
2024-02-07T07:46:56.366Z,51.179218
2024-02-07T07:47:56.308Z,51.179256
2024-02-07T07:48:56.378Z,51.179268
2024-02-07T07:49:56.318Z,51.179283
2024-02-07T07:50:56.260Z,51.179279
2024-02-07T07:51:56.246Z,51.179245
2024-02-07T07:52:56.326Z,51.179241
2024-02-07T07:53:56.243Z,51.179199
2024-02-07T07:54:56.193Z,51.179180
2024-02-07T07:55:56.230Z,51.179165
2024-02-07T07:56:56.189Z,51.179260
2024-02-07T07:57:56.177Z,51.179264
2024-02-07T07:58:56.255Z,51.179203
2024-02-07T07:59:56.141Z,51.179199
2024-02-07T08:00:56.181Z,51.179218
2024-02-07T08:01:56.235Z,51.179214
2024-02-07T08:02:56.114Z,51.179222
2024-02-07T08:03:56.129Z,51.179203
2024-02-07T08:04:56.136Z,51.179169
2024-02-07T08:05:56.171Z,51.179207
2024-02-07T08:06:56.112Z,51.179234
2024-02-07T08:07:56.211Z,51.179276
2024-02-07T08:08:56.038Z,51.179241
2024-02-07T08:09:56.052Z,51.179237
2024-02-07T08:10:56.179Z,51.179253
2024-02-07T08:11:56.027Z,51.179241
2024-02-07T08:12:55.997Z,51.179234
2024-02-07T08:13:56.100Z,51.179245
2024-02-07T08:14:55.975Z,51.179264
2024-02-07T08:15:56.019Z,51.179230
2024-02-07T08:16:56.001Z,51.179241
2024-02-07T08:17:55.980Z,51.179214
2024-02-07T08:18:56.369Z,51.179214
2024-02-07T08:19:55.967Z,51.179256
2024-02-07T08:20:55.909Z,51.179283
2024-02-07T08:21:55.912Z,51.179234
2024-02-07T08:22:56.000Z,51.179237
2024-02-07T08:23:55.902Z,51.179249
2024-02-07T08:24:55.865Z,51.179295
2024-02-07T08:25:55.930Z,51.179249
2024-02-07T08:26:55.915Z,51.179241
2024-02-07T08:27:55.855Z,51.179249
2024-02-07T08:28:55.874Z,51.179199
2024-02-07T08:29:55.796Z,51.179214
2024-02-07T08:30:55.808Z,51.179264
2024-02-07T08:31:57.992Z,51.179283
2024-02-07T08:32:56.882Z,51.179260
2024-02-07T08:33:55.950Z,51.179272
2024-02-07T08:34:56.040Z,51.179279
2024-02-07T08:35:55.909Z,51.179283
2024-02-07T08:36:55.735Z,51.179249
2024-02-07T08:37:55.731Z,51.179234
2024-02-07T08:38:55.708Z,51.179241
2024-02-07T08:39:55.734Z,51.179203
2024-02-07T08:40:55.872Z,51.179230
2024-02-07T08:41:55.698Z,51.179226
2024-02-07T08:42:55.670Z,51.179237
2024-02-07T08:43:55.781Z,51.179268
2024-02-07T08:44:55.651Z,51.179249
2024-02-07T08:45:55.626Z,51.179256
2024-02-07T08:46:56.676Z,51.179268
2024-02-07T08:47:55.769Z,51.179237
2024-02-07T08:48:55.665Z,51.179241
2024-02-07T08:49:55.658Z,51.179264
2024-02-07T08:50:55.603Z,51.179245
2024-02-07T08:51:55.568Z,51.179241
2024-02-07T08:52:55.833Z,51.179230
2024-02-07T08:53:55.571Z,51.179241
2024-02-07T08:54:55.561Z,51.179241
2024-02-07T08:55:55.632Z,51.179230
2024-02-07T08:56:55.546Z,51.179256
2024-02-07T08:57:55.545Z,51.179264
2024-02-07T08:58:55.535Z,51.179256
2024-02-07T08:59:55.491Z,51.179234
2024-02-07T09:00:55.500Z,51.179230
2024-02-07T09:01:55.661Z,51.179241
2024-02-07T09:02:55.505Z,51.179218
2024-02-07T09:03:55.446Z,51.179199
2024-02-07T09:04:55.603Z,51.179192
2024-02-07T09:05:55.438Z,51.179256
2024-02-07T09:06:55.460Z,51.179256
2024-02-07T09:07:55.510Z,51.179249
2024-02-07T09:08:55.400Z,51.179237
2024-02-07T09:09:55.376Z,51.179245
2024-02-07T09:10:55.389Z,51.179268
2024-02-07T09:11:55.390Z,51.179279
2024-02-07T09:12:55.370Z,51.179276
2024-02-07T09:13:55.407Z,51.179260
2024-02-07T09:14:55.326Z,51.179260
2024-02-07T09:15:59.533Z,51.179260
2024-02-07T09:16:56.365Z,51.179245
2024-02-07T09:17:55.442Z,51.179192
2024-02-07T09:18:55.318Z,51.179173
2024-02-07T09:19:55.348Z,51.179211
2024-02-07T09:20:55.279Z,51.179249
2024-02-07T09:21:55.280Z,51.179237
2024-02-07T09:22:55.389Z,51.179245
2024-02-07T09:23:55.222Z,51.179256
2024-02-07T09:24:55.247Z,51.179260
2024-02-07T09:25:55.268Z,51.179306
2024-02-07T09:26:55.239Z,51.179287
2024-02-07T09:27:55.188Z,51.179249
2024-02-07T09:28:55.399Z,51.179222
2024-02-07T09:30:03.646Z,51.179226
2024-02-07T09:30:57.167Z,51.179245
2024-02-07T09:31:55.363Z,51.179256
2024-02-07T09:32:55.243Z,51.179264
2024-02-07T09:33:55.310Z,51.179272
2024-02-07T09:34:55.299Z,51.179306
2024-02-07T09:35:55.331Z,51.179249
2024-02-07T09:36:55.133Z,51.179241
2024-02-07T09:37:55.175Z,51.179234
2024-02-07T09:38:55.127Z,51.179222
2024-02-07T09:39:55.094Z,51.179214
2024-02-07T09:40:55.219Z,51.179234
2024-02-07T09:41:55.100Z,51.179230
2024-02-07T09:42:55.104Z,51.179245
2024-02-07T09:43:55.201Z,51.179272
2024-02-07T09:44:56.338Z,51.179260
2024-02-07T09:45:55.012Z,51.179241
2024-02-07T09:46:55.379Z,51.179245
2024-02-07T09:47:55.070Z,51.179276
2024-02-07T09:48:55.060Z,51.179241
2024-02-07T09:49:54.983Z,51.179234
2024-02-07T09:50:54.986Z,51.179230
2024-02-07T09:51:54.987Z,51.179241
2024-02-07T09:52:55.074Z,51.179222
2024-02-07T09:53:54.924Z,51.179226
2024-02-07T09:54:54.923Z,51.179203
2024-02-07T09:55:55.005Z,51.179241
2024-02-07T09:56:54.883Z,51.179256
2024-02-07T09:57:54.887Z,51.179241
2024-02-07T09:58:54.915Z,51.179237
2024-02-07T09:59:54.847Z,51.179279
2024-02-07T10:00:54.953Z,51.179264
2024-02-07T10:01:54.952Z,51.179249
2024-02-07T10:02:54.896Z,51.179222
2024-02-07T10:03:54.821Z,51.179218
2024-02-07T10:04:54.845Z,51.179241
2024-02-07T10:05:54.834Z,51.179249
2024-02-07T10:06:54.791Z,51.179207
2024-02-07T10:07:54.955Z,51.179184
2024-02-07T10:08:54.771Z,51.179153
2024-02-07T10:09:54.754Z,51.179165
2024-02-07T10:10:54.838Z,51.179180
2024-02-07T10:11:54.737Z,51.179192
2024-02-07T10:12:54.735Z,51.179226
2024-02-07T10:13:54.746Z,51.179260
2024-02-07T10:14:54.691Z,51.179264
2024-02-07T10:15:54.691Z,51.179283
2024-02-07T10:16:54.805Z,51.179237
2024-02-07T10:17:54.691Z,51.179150
2024-02-07T10:18:54.671Z,51.179146
2024-02-07T10:19:54.711Z,51.179203
2024-02-07T10:20:54.631Z,51.179218
2024-02-07T10:21:54.642Z,51.179226
2024-02-07T10:22:54.623Z,51.179245
2024-02-07T10:23:54.593Z,51.179268
2024-02-07T10:24:54.623Z,51.179222
2024-02-07T10:25:54.613Z,51.179241
2024-02-07T10:26:54.555Z,51.179230
2024-02-07T10:27:54.551Z,51.179245
2024-02-07T10:28:54.587Z,51.179264
2024-02-07T10:29:54.531Z,51.179253
2024-02-07T10:30:54.545Z,51.179218
2024-02-07T10:31:54.713Z,51.179214
2024-02-07T10:32:54.520Z,51.179237
2024-02-07T10:33:54.565Z,51.179218
2024-02-07T10:34:57.058Z,51.179230
2024-02-07T10:35:55.508Z,51.179203
2024-02-07T10:36:54.446Z,51.179184
2024-02-07T10:37:54.489Z,51.179222
2024-02-07T10:38:54.452Z,51.179241
2024-02-07T10:39:54.423Z,51.179237
2024-02-07T10:40:55.678Z,51.179241
2024-02-07T10:41:55.414Z,51.179272
2024-02-07T10:42:54.405Z,51.179264
2024-02-07T10:43:54.481Z,51.179245
2024-02-07T10:44:54.362Z,51.179230
2024-02-07T10:45:54.365Z,51.179157
2024-02-07T10:46:54.428Z,51.179073
2024-02-07T10:47:54.573Z,51.179108
2024-02-07T10:48:54.359Z,51.179123
2024-02-07T10:49:54.396Z,51.179150
2024-02-07T10:50:54.448Z,51.179165
2024-02-07T10:51:55.332Z,51.179218
2024-02-07T10:52:54.369Z,51.179218
2024-02-07T10:53:54.275Z,51.179211
2024-02-07T10:54:54.253Z,51.179214
2024-02-07T10:55:54.296Z,51.179203
2024-02-07T10:56:54.238Z,51.179180
2024-02-07T10:57:54.235Z,51.179176
2024-02-07T10:58:56.173Z,51.179180
2024-02-07T10:59:55.450Z,51.179203
2024-02-07T11:00:54.228Z,51.179230
2024-02-07T11:01:55.392Z,51.179218
2024-02-07T11:02:54.258Z,51.179214
2024-02-07T11:03:54.181Z,51.179195
2024-02-07T11:04:54.285Z,51.179165
2024-02-07T11:05:54.258Z,51.179230
2024-02-07T11:06:54.328Z,51.179272
2024-02-07T11:07:54.369Z,51.179153
2024-02-07T11:08:54.097Z,51.179237
2024-02-07T11:09:54.085Z,51.179241
2024-02-07T11:10:54.101Z,51.179264
2024-02-07T11:11:54.118Z,51.179329
2024-02-07T11:12:54.093Z,51.179314
2024-02-07T11:13:54.195Z,51.179249
2024-02-07T11:14:54.047Z,51.179276
2024-02-07T11:15:54.024Z,51.179260
2024-02-07T11:16:54.116Z,51.179214
2024-02-07T11:17:54.035Z,51.179184
2024-02-07T11:18:53.995Z,51.179180
2024-02-07T11:19:54.048Z,51.179184
2024-02-07T11:20:53.995Z,51.179195
2024-02-07T11:21:53.958Z,51.179169
2024-02-07T11:22:54.064Z,51.179173
2024-02-07T11:23:53.957Z,51.179222